createdAt,value
2018-11-28T00:04:39.574Z,5.00
2018-11-28T00:09:42.672Z,4.03
2018-11-28T00:14:45.769Z,4.53
2018-11-28T00:19:48.866Z,4.77
2018-11-28T00:24:51.961Z,4.73
2018-11-28T00:29:55.067Z,4.83
2018-11-28T00:34:58.182Z,4.70
2018-11-28T00:40:01.296Z,4.50
2018-11-28T00:45:06.651Z,4.40
2018-11-28T00:50:17.005Z,4.03
2018-11-28T00:55:20.105Z,3.97
2018-11-28T01:00:26.097Z,4.33
2018-11-28T01:05:29.185Z,3.30
2018-11-28T01:10:32.295Z,3.90
2018-11-28T01:15:35.918Z,3.40
2018-11-28T01:20:39.025Z,3.80
2018-11-28T01:25:42.114Z,3.60
2018-11-28T01:30:45.222Z,3.63
2018-11-28T01:35:48.304Z,3.83
2018-11-28T01:40:51.396Z,3.63
2018-11-28T01:45:54.500Z,3.70
2018-11-28T01:50:57.626Z,3.27
2018-11-28T01:56:00.746Z,3.20
2018-11-28T02:01:03.859Z,3.67
2018-11-28T02:06:06.936Z,3.03
2018-11-28T02:11:10.060Z,3.60
2018-11-28T02:16:13.178Z,3.27
2018-11-28T02:21:16.292Z,4.00
2018-11-28T02:26:19.380Z,3.77
2018-11-28T02:31:22.475Z,3.60
2018-11-28T02:36:25.565Z,4.40
2018-11-28T02:41:28.670Z,3.67
2018-11-28T02:46:31.942Z,3.30
2018-11-28T02:51:35.031Z,3.10
2018-11-28T02:56:38.102Z,3.53
2018-11-28T03:01:41.245Z,3.43
2018-11-28T03:06:44.311Z,3.50
2018-11-28T03:11:47.395Z,3.70
2018-11-28T03:16:50.462Z,3.50
2018-11-28T03:21:53.537Z,3.37
2018-11-28T03:26:56.612Z,3.00
2018-11-28T03:31:59.735Z,3.63
2018-11-28T03:37:02.848Z,3.37
2018-11-28T03:42:06.089Z,3.17
2018-11-28T03:47:09.174Z,3.20
2018-11-28T03:52:12.273Z,3.13
2018-11-28T03:57:15.372Z,3.80
2018-11-28T04:02:18.473Z,3.23
2018-11-28T04:07:21.570Z,3.50
2018-11-28T04:12:24.648Z,4.13
2018-11-28T04:17:27.719Z,3.20
2018-11-28T04:22:30.810Z,3.87
2018-11-28T04:27:33.909Z,3.77
2018-11-28T04:49:00.763Z,4.00
2018-11-28T04:54:03.850Z,5.23
2018-11-28T04:59:06.920Z,4.27
2018-11-28T05:04:10.000Z,4.63
2018-11-28T05:09:13.073Z,4.87
2018-11-28T05:14:16.154Z,5.03
2018-11-28T05:19:19.310Z,4.43
2018-11-28T05:24:22.394Z,4.80
2018-11-28T05:29:25.477Z,5.10
2018-11-28T05:50:52.675Z,4.00
2018-11-28T05:55:55.752Z,4.87
2018-11-28T06:00:58.822Z,4.77
2018-11-28T06:06:01.921Z,4.60
2018-11-28T06:11:05.381Z,4.97
2018-11-28T06:16:08.549Z,4.77
2018-11-28T06:21:11.618Z,4.60
2018-11-28T06:26:14.689Z,4.57
2018-11-28T06:31:17.767Z,5.43
2018-11-28T06:52:46.034Z,5.40
2018-11-28T06:57:49.138Z,6.37
2018-11-28T07:19:16.623Z,6.97
2018-11-28T07:24:19.699Z,7.57
2018-11-28T07:29:22.779Z,8.00
2018-11-28T07:34:25.858Z,8.70
2018-11-28T07:39:28.932Z,8.07
2018-11-28T07:44:32.019Z,8.27
2018-11-28T07:49:35.174Z,8.33
2018-11-28T07:54:38.251Z,8.40
2018-11-28T07:59:42.332Z,9.47
2018-11-28T08:04:45.447Z,9.27
2018-11-28T08:09:48.507Z,9.47
2018-11-28T08:14:51.638Z,10.47
2018-11-28T08:36:17.865Z,13.20
2018-11-28T08:41:21.004Z,13.23
2018-11-28T08:46:24.084Z,12.87
2018-11-28T08:51:27.159Z,12.10
2018-11-28T08:56:30.110Z,12.23
2018-11-28T09:01:33.210Z,12.23
2018-11-28T09:22:47.527Z,10.90
2018-11-28T09:27:55.744Z,11.33
2018-11-28T09:32:58.827Z,10.37
2018-11-28T09:38:01.906Z,10.00
2018-11-28T09:59:23.378Z,9.30
2018-11-28T10:04:26.481Z,8.50
2018-11-28T10:09:29.562Z,9.20
2018-11-28T10:14:32.639Z,9.70
2018-11-28T10:19:35.710Z,9.97
2018-11-28T10:24:38.798Z,10.20
2018-11-28T10:29:41.878Z,10.10
2018-11-28T10:34:44.963Z,9.60
2018-11-28T10:39:48.038Z,11.10
2018-11-28T10:44:51.114Z,9.53
2018-11-28T10:49:54.194Z,9.60
2018-11-28T10:54:57.267Z,9.43
2018-11-28T11:00:00.338Z,8.73
2018-11-28T11:05:08.854Z,9.83
2018-11-28T11:10:17.386Z,8.90
2018-11-28T11:15:20.454Z,9.00
2018-11-28T11:20:23.542Z,8.20
2018-11-28T11:25:29.506Z,8.97
2018-11-28T11:30:32.599Z,8.87
2018-11-28T11:35:35.687Z,8.53
2018-11-28T11:57:02.586Z,5.53
